sensor_id;sensor_type;location;lat;lon;timestamp;temperature;humidity
52381;DHT22;38310;52.796;6.942;2023-12-20T00:00:58;5.20;99.90
52381;DHT22;38310;52.796;6.942;2023-12-20T00:03:24;6.30;99.90
52381;DHT22;38310;52.796;6.942;2023-12-20T00:05:50;5.20;99.90
52381;DHT22;38310;52.796;6.942;2023-12-20T00:08:16;5.30;99.90
52381;DHT22;38310;52.796;6.942;2023-12-20T00:10:43;5.40;99.90
52381;DHT22;38310;52.796;6.942;2023-12-20T00:13:08;5.30;99.90
52381;DHT22;38310;52.796;6.942;2023-12-20T00:15:35;5.20;99.90
52381;DHT22;38310;52.796;6.942;2023-12-20T00:18:01;5.40;99.90
52381;DHT22;38310;52.796;6.942;2023-12-20T00:20:28;5.30;99.90
52381;DHT22;38310;52.796;6.942;2023-12-20T00:22:56;6.10;99.90
52381;DHT22;38310;52.796;6.942;2023-12-20T00:25:26;5.40;99.90
52381;DHT22;38310;52.796;6.942;2023-12-20T00:27:52;5.30;99.90
52381;DHT22;38310;52.796;6.942;2023-12-20T00:30:18;5.40;99.90
52381;DHT22;38310;52.796;6.942;2023-12-20T00:32:44;5.40;99.90
52381;DHT22;38310;52.796;6.942;2023-12-20T00:35:15;5.30;99.90
52381;DHT22;38310;52.796;6.942;2023-12-20T00:37:42;5.30;99.90
52381;DHT22;38310;52.796;6.942;2023-12-20T00:40:08;5.30;99.90
52381;DHT22;38310;52.796;6.942;2023-12-20T00:42:35;5.20;99.90
52381;DHT22;38310;52.796;6.942;2023-12-20T00:45:01;5.30;99.90
52381;DHT22;38310;52.796;6.942;2023-12-20T00:47:28;5.30;99.90
52381;DHT22;38310;52.796;6.942;2023-12-20T00:49:54;5.10;99.90
52381;DHT22;38310;52.796;6.942;2023-12-20T00:52:19;5.10;99.90
52381;DHT22;38310;52.796;6.942;2023-12-20T00:54:47;5.20;99.90
52381;DHT22;38310;52.796;6.942;2023-12-20T00:57:13;6.30;99.90
52381;DHT22;38310;52.796;6.942;2023-12-20T00:59:38;5.40;99.90
52381;DHT22;38310;52.796;6.942;2023-12-20T01:02:04;6.20;99.90
52381;DHT22;38310;52.796;6.942;2023-12-20T01:04:31;5.20;99.90
52381;DHT22;38310;52.796;6.942;2023-12-20T01:06:57;5.10;99.90
52381;DHT22;38310;52.796;6.942;2023-12-20T01:09:23;5.10;99.90
52381;DHT22;38310;52.796;6.942;2023-12-20T01:11:54;5.10;99.90
52381;DHT22;38310;52.796;6.942;2023-12-20T01:14:20;5.00;99.90
52381;DHT22;38310;52.796;6.942;2023-12-20T01:16:46;5.00;99.90
52381;DHT22;38310;52.796;6.942;2023-12-20T01:19:13;5.10;99.90
52381;DHT22;38310;52.796;6.942;2023-12-20T01:21:39;5.10;99.90
52381;DHT22;38310;52.796;6.942;2023-12-20T01:24:05;3.60;99.90
52381;DHT22;38310;52.796;6.942;2023-12-20T01:26:31;5.10;99.90
52381;DHT22;38310;52.796;6.942;2023-12-20T01:28:57;5.20;99.90
52381;DHT22;38310;52.796;6.942;2023-12-20T01:31:23;5.10;99.90
52381;DHT22;38310;52.796;6.942;2023-12-20T01:33:49;5.10;99.90
52381;DHT22;38310;52.796;6.942;2023-12-20T01:36:14;5.10;99.90
52381;DHT22;38310;52.796;6.942;2023-12-20T01:38:41;6.10;99.90
52381;DHT22;38310;52.796;6.942;2023-12-20T01:41:08;5.20;99.90
52381;DHT22;38310;52.796;6.942;2023-12-20T01:43:34;5.10;99.90
52381;DHT22;38310;52.796;6.942;2023-12-20T01:46:00;5.10;99.90
52381;DHT22;38310;52.796;6.942;2023-12-20T01:48:27;5.00;99.90
52381;DHT22;38310;52.796;6.942;2023-12-20T01:50:53;5.30;99.90
52381;DHT22;38310;52.796;6.942;2023-12-20T01:53:21;6.20;99.90
52381;DHT22;38310;52.796;6.942;2023-12-20T01:55:50;5.10;99.90
52381;DHT22;38310;52.796;6.942;2023-12-20T01:58:18;5.60;99.90
52381;DHT22;38310;52.796;6.942;2023-12-20T02:00:44;5.10;99.90
52381;DHT22;38310;52.796;6.942;2023-12-20T02:03:11;5.10;99.90
52381;DHT22;38310;52.796;6.942;2023-12-20T02:05:40;5.10;99.90
52381;DHT22;38310;52.796;6.942;2023-12-20T02:08:07;5.10;99.90
52381;DHT22;38310;52.796;6.942;2023-12-20T02:10:32;5.20;99.90
52381;DHT22;38310;52.796;6.942;2023-12-20T02:12:58;6.00;99.90
52381;DHT22;38310;52.796;6.942;2023-12-20T02:15:24;6.50;99.90
52381;DHT22;38310;52.796;6.942;2023-12-20T02:17:50;4.80;99.90
52381;DHT22;38310;52.796;6.942;2023-12-20T02:20:16;5.20;99.90
52381;DHT22;38310;52.796;6.942;2023-12-20T02:22:42;5.20;99.90
52381;DHT22;38310;52.796;6.942;2023-12-20T02:25:07;5.20;99.90
52381;DHT22;38310;52.796;6.942;2023-12-20T02:27:34;6.10;99.90
52381;DHT22;38310;52.796;6.942;2023-12-20T02:30:00;5.30;99.90
52381;DHT22;38310;52.796;6.942;2023-12-20T02:32:26;5.30;99.90
52381;DHT22;38310;52.796;6.942;2023-12-20T02:34:53;5.30;99.90
52381;DHT22;38310;52.796;6.942;2023-12-20T02:37:19;5.40;99.90
52381;DHT22;38310;52.796;6.942;2023-12-20T02:39:45;5.30;99.90
52381;DHT22;38310;52.796;6.942;2023-12-20T02:42:11;5.50;99.90
52381;DHT22;38310;52.796;6.942;2023-12-20T02:44:36;5.40;99.90
52381;DHT22;38310;52.796;6.942;2023-12-20T02:47:03;5.30;99.90
52381;DHT22;38310;52.796;6.942;2023-12-20T02:49:28;5.30;99.90
52381;DHT22;38310;52.796;6.942;2023-12-20T02:51:54;6.80;99.90
52381;DHT22;38310;52.796;6.942;2023-12-20T02:54:20;5.40;99.90
52381;DHT22;38310;52.796;6.942;2023-12-20T02:56:47;5.50;99.90
52381;DHT22;38310;52.796;6.942;2023-12-20T02:59:13;5.40;99.90
52381;DHT22;38310;52.796;6.942;2023-12-20T03:01:44;5.40;99.90
52381;DHT22;38310;52.796;6.942;2023-12-20T03:04:10;5.50;99.90
52381;DHT22;38310;52.796;6.942;2023-12-20T03:06:36;6.70;99.90
52381;DHT22;38310;52.796;6.942;2023-12-20T03:09:02;5.70;99.90
52381;DHT22;38310;52.796;6.942;2023-12-20T03:11:27;5.40;99.90
52381;DHT22;38310;52.796;6.942;2023-12-20T03:13:54;5.60;99.90
52381;DHT22;38310;52.796;6.942;2023-12-20T03:16:20;5.40;99.90
52381;DHT22;38310;52.796;6.942;2023-12-20T03:18:46;5.50;99.90
52381;DHT22;38310;52.796;6.942;2023-12-20T03:21:11;5.50;99.90
52381;DHT22;38310;52.796;6.942;2023-12-20T03:23:37;5.50;99.90
52381;DHT22;38310;52.796;6.942;2023-12-20T03:26:03;5.60;99.90
52381;DHT22;38310;52.796;6.942;2023-12-20T03:28:29;5.50;99.90
52381;DHT22;38310;52.796;6.942;2023-12-20T03:30:55;5.50;99.90
52381;DHT22;38310;52.796;6.942;2023-12-20T03:33:21;5.60;99.90
52381;DHT22;38310;52.796;6.942;2023-12-20T03:35:47;5.50;99.90
52381;DHT22;38310;52.796;6.942;2023-12-20T03:38:12;5.70;99.90
52381;DHT22;38310;52.796;6.942;2023-12-20T03:40:38;5.60;99.90
52381;DHT22;38310;52.796;6.942;2023-12-20T03:43:04;5.60;99.90
52381;DHT22;38310;52.796;6.942;2023-12-20T03:45:30;6.80;99.90
52381;DHT22;38310;52.796;6.942;2023-12-20T03:47:56;5.60;99.90
52381;DHT22;38310;52.796;6.942;2023-12-20T03:50:23;5.70;99.90
52381;DHT22;38310;52.796;6.942;2023-12-20T03:52:49;5.60;99.90
52381;DHT22;38310;52.796;6.942;2023-12-20T03:55:15;5.50;99.90
52381;DHT22;38310;52.796;6.942;2023-12-20T03:57:41;5.80;99.90
52381;DHT22;38310;52.796;6.942;2023-12-20T04:00:10;5.40;99.90
52381;DHT22;38310;52.796;6.942;2023-12-20T04:02:39;5.40;99.90
52381;DHT22;38310;52.796;6.942;2023-12-20T04:05:07;5.50;99.90
52381;DHT22;38310;52.796;6.942;2023-12-20T04:07:33;5.50;99.90
52381;DHT22;38310;52.796;6.942;2023-12-20T04:09:59;5.60;99.90
52381;DHT22;38310;52.796;6.942;2023-12-20T04:12:24;5.50;99.90
52381;DHT22;38310;52.796;6.942;2023-12-20T04:14:50;5.50;99.90
52381;DHT22;38310;52.796;6.942;2023-12-20T04:17:16;5.60;99.90
52381;DHT22;38310;52.796;6.942;2023-12-20T04:19:42;5.50;99.90
52381;DHT22;38310;52.796;6.942;2023-12-20T04:22:08;6.90;99.90
52381;DHT22;38310;52.796;6.942;2023-12-20T04:24:34;5.70;99.90
52381;DHT22;38310;52.796;6.942;2023-12-20T04:27:00;5.90;99.90
52381;DHT22;38310;52.796;6.942;2023-12-20T04:29:26;5.60;99.90
52381;DHT22;38310;52.796;6.942;2023-12-20T04:31:51;6.00;99.90
52381;DHT22;38310;52.796;6.942;2023-12-20T04:34:19;5.70;99.90
52381;DHT22;38310;52.796;6.942;2023-12-20T04:36:45;6.20;99.90
52381;DHT22;38310;52.796;6.942;2023-12-20T04:39:12;5.70;99.90
52381;DHT22;38310;52.796;6.942;2023-12-20T04:41:41;5.60;99.90
52381;DHT22;38310;52.796;6.942;2023-12-20T04:44:07;5.70;99.90
52381;DHT22;38310;52.796;6.942;2023-12-20T04:46:33;5.70;99.90
52381;DHT22;38310;52.796;6.942;2023-12-20T04:48:58;7.00;99.90
52381;DHT22;38310;52.796;6.942;2023-12-20T04:51:24;6.00;99.90
52381;DHT22;38310;52.796;6.942;2023-12-20T04:53:50;5.80;99.90
52381;DHT22;38310;52.796;6.942;2023-12-20T04:56:15;5.80;99.90
52381;DHT22;38310;52.796;6.942;2023-12-20T04:58:42;4.60;99.90
52381;DHT22;38310;52.796;6.942;2023-12-20T05:01:09;5.70;99.90
52381;DHT22;38310;52.796;6.942;2023-12-20T05:03:35;5.70;99.90
52381;DHT22;38310;52.796;6.942;2023-12-20T05:06:01;5.70;99.90
52381;DHT22;38310;52.796;6.942;2023-12-20T05:08:27;5.80;99.90
52381;DHT22;38310;52.796;6.942;2023-12-20T05:10:54;5.90;99.90
52381;DHT22;38310;52.796;6.942;2023-12-20T05:13:20;5.80;99.90
52381;DHT22;38310;52.796;6.942;2023-12-20T05:15:46;5.90;99.90
52381;DHT22;38310;52.796;6.942;2023-12-20T05:18:12;5.90;99.90
52381;DHT22;38310;52.796;6.942;2023-12-20T05:20:40;6.00;99.90
52381;DHT22;38310;52.796;6.942;2023-12-20T05:23:06;5.90;99.90
52381;DHT22;38310;52.796;6.942;2023-12-20T05:25:32;6.00;99.90
52381;DHT22;38310;52.796;6.942;2023-12-20T05:27:57;6.00;99.90
52381;DHT22;38310;52.796;6.942;2023-12-20T05:30:23;6.10;99.90
52381;DHT22;38310;52.796;6.942;2023-12-20T05:32:49;6.20;99.90
52381;DHT22;38310;52.796;6.942;2023-12-20T05:35:15;6.10;99.90
52381;DHT22;38310;52.796;6.942;2023-12-20T05:37:41;7.40;99.90
52381;DHT22;38310;52.796;6.942;2023-12-20T05:40:07;6.10;99.90
52381;DHT22;38310;52.796;6.942;2023-12-20T05:42:37;6.10;99.90
52381;DHT22;38310;52.796;6.942;2023-12-20T05:45:04;6.10;99.90
52381;DHT22;38310;52.796;6.942;2023-12-20T05:47:31;6.20;99.90
52381;DHT22;38310;52.796;6.942;2023-12-20T05:49:57;6.20;99.90
52381;DHT22;38310;52.796;6.942;2023-12-20T05:52:23;6.20;99.90
52381;DHT22;38310;52.796;6.942;2023-12-20T05:54:48;6.20;99.90
52381;DHT22;38310;52.796;6.942;2023-12-20T05:57:14;6.30;99.90
52381;DHT22;38310;52.796;6.942;2023-12-20T05:59:40;6.30;99.90
52381;DHT22;38310;52.796;6.942;2023-12-20T06:02:06;6.30;99.90
52381;DHT22;38310;52.796;6.942;2023-12-20T06:04:32;6.20;99.90
52381;DHT22;38310;52.796;6.942;2023-12-20T06:06:58;6.20;99.90
52381;DHT22;38310;52.796;6.942;2023-12-20T06:09:28;6.20;99.90
52381;DHT22;38310;52.796;6.942;2023-12-20T06:11:54;6.30;99.90
52381;DHT22;38310;52.796;6.942;2023-12-20T06:14:19;6.40;99.90
52381;DHT22;38310;52.796;6.942;2023-12-20T06:16:45;6.30;99.90
52381;DHT22;38310;52.796;6.942;2023-12-20T06:19:11;6.30;99.90
52381;DHT22;38310;52.796;6.942;2023-12-20T06:21:37;6.30;99.90
52381;DHT22;38310;52.796;6.942;2023-12-20T06:24:03;6.30;99.90
52381;DHT22;38310;52.796;6.942;2023-12-20T06:26:32;6.40;99.90
52381;DHT22;38310;52.796;6.942;2023-12-20T06:28:58;6.40;99.90
52381;DHT22;38310;52.796;6.942;2023-12-20T06:31:23;6.40;99.90
52381;DHT22;38310;52.796;6.942;2023-12-20T06:33:49;6.40;99.90
52381;DHT22;38310;52.796;6.942;2023-12-20T06:36:23;7.50;99.90
52381;DHT22;38310;52.796;6.942;2023-12-20T06:38:48;6.40;99.90
52381;DHT22;38310;52.796;6.942;2023-12-20T06:41:15;6.40;99.90
52381;DHT22;38310;52.796;6.942;2023-12-20T06:43:42;6.40;99.90
52381;DHT22;38310;52.796;6.942;2023-12-20T06:46:08;6.40;99.90
52381;DHT22;38310;52.796;6.942;2023-12-20T06:48:34;6.50;99.90
52381;DHT22;38310;52.796;6.942;2023-12-20T06:51:03;7.20;99.90
52381;DHT22;38310;52.796;6.942;2023-12-20T06:53:29;6.50;99.90
52381;DHT22;38310;52.796;6.942;2023-12-20T06:55:54;6.50;99.90
52381;DHT22;38310;52.796;6.942;2023-12-20T06:58:23;6.60;99.90
52381;DHT22;38310;52.796;6.942;2023-12-20T07:00:50;6.60;99.90
52381;DHT22;38310;52.796;6.942;2023-12-20T07:03:17;6.60;99.90
52381;DHT22;38310;52.796;6.942;2023-12-20T07:05:43;6.60;99.90
52381;DHT22;38310;52.796;6.942;2023-12-20T07:08:09;6.80;99.90
52381;DHT22;38310;52.796;6.942;2023-12-20T07:10:36;6.60;99.90
52381;DHT22;38310;52.796;6.942;2023-12-20T07:13:05;6.60;99.90
52381;DHT22;38310;52.796;6.942;2023-12-20T07:15:31;6.70;99.90
52381;DHT22;38310;52.796;6.942;2023-12-20T07:17:57;6.60;99.90
52381;DHT22;38310;52.796;6.942;2023-12-20T07:20:25;6.60;99.90
52381;DHT22;38310;52.796;6.942;2023-12-20T07:22:54;6.60;99.90
52381;DHT22;38310;52.796;6.942;2023-12-20T07:25:20;6.60;99.90
52381;DHT22;38310;52.796;6.942;2023-12-20T07:27:46;7.10;99.90
52381;DHT22;38310;52.796;6.942;2023-12-20T07:30:12;6.70;99.90
52381;DHT22;38310;52.796;6.942;2023-12-20T07:32:37;6.60;99.90
52381;DHT22;38310;52.796;6.942;2023-12-20T07:35:03;6.70;99.90
52381;DHT22;38310;52.796;6.942;2023-12-20T07:37:29;6.60;99.90
52381;DHT22;38310;52.796;6.942;2023-12-20T07:39:55;6.60;99.90
52381;DHT22;38310;52.796;6.942;2023-12-20T07:42:21;6.70;99.90
52381;DHT22;38310;52.796;6.942;2023-12-20T07:44:47;6.70;99.90
52381;DHT22;38310;52.796;6.942;2023-12-20T07:47:13;6.70;99.90
52381;DHT22;38310;52.796;6.942;2023-12-20T07:49:42;6.70;99.90
52381;DHT22;38310;52.796;6.942;2023-12-20T07:52:08;6.70;99.90
52381;DHT22;38310;52.796;6.942;2023-12-20T07:54:33;6.70;99.90
52381;DHT22;38310;52.796;6.942;2023-12-20T07:57:00;6.70;99.90
52381;DHT22;38310;52.796;6.942;2023-12-20T07:59:26;6.70;99.90
52381;DHT22;38310;52.796;6.942;2023-12-20T08:01:52;6.80;99.90
52381;DHT22;38310;52.796;6.942;2023-12-20T08:04:17;6.70;99.90
52381;DHT22;38310;52.796;6.942;2023-12-20T08:06:43;7.00;99.90
52381;DHT22;38310;52.796;6.942;2023-12-20T08:09:09;6.70;99.90
52381;DHT22;38310;52.796;6.942;2023-12-20T08:11:35;6.70;99.90
52381;DHT22;38310;52.796;6.942;2023-12-20T08:14:01;6.70;99.90
52381;DHT22;38310;52.796;6.942;2023-12-20T08:16:27;6.70;99.90
52381;DHT22;38310;52.796;6.942;2023-12-20T08:18:53;6.90;99.90
52381;DHT22;38310;52.796;6.942;2023-12-20T08:21:18;6.80;99.90
52381;DHT22;38310;52.796;6.942;2023-12-20T08:23:46;6.80;99.90
52381;DHT22;38310;52.796;6.942;2023-12-20T08:26:13;6.30;99.90
52381;DHT22;38310;52.796;6.942;2023-12-20T08:28:38;6.90;99.90
52381;DHT22;38310;52.796;6.942;2023-12-20T08:31:04;7.50;99.90
52381;DHT22;38310;52.796;6.942;2023-12-20T08:33:30;6.90;99.90
52381;DHT22;38310;52.796;6.942;2023-12-20T08:35:56;6.90;99.90
52381;DHT22;38310;52.796;6.942;2023-12-20T08:38:21;7.50;99.90
52381;DHT22;38310;52.796;6.942;2023-12-20T08:40:47;6.90;99.90
52381;DHT22;38310;52.796;6.942;2023-12-20T08:43:14;7.00;99.90
52381;DHT22;38310;52.796;6.942;2023-12-20T08:45:39;7.00;99.90
52381;DHT22;38310;52.796;6.942;2023-12-20T08:48:05;7.00;99.90
52381;DHT22;38310;52.796;6.942;2023-12-20T08:50:32;5.80;99.90
52381;DHT22;38310;52.796;6.942;2023-12-20T08:52:57;7.00;99.90
52381;DHT22;38310;52.796;6.942;2023-12-20T08:55:23;7.10;99.90
52381;DHT22;38310;52.796;6.942;2023-12-20T08:57:49;7.10;99.90
52381;DHT22;38310;52.796;6.942;2023-12-20T09:00:16;7.10;99.90
52381;DHT22;38310;52.796;6.942;2023-12-20T09:02:42;7.10;99.90
52381;DHT22;38310;52.796;6.942;2023-12-20T09:05:08;7.20;99.90
52381;DHT22;38310;52.796;6.942;2023-12-20T09:07:35;7.20;99.90
52381;DHT22;38310;52.796;6.942;2023-12-20T09:10:01;7.30;99.90
52381;DHT22;38310;52.796;6.942;2023-12-20T09:12:26;7.20;99.90
52381;DHT22;38310;52.796;6.942;2023-12-20T09:14:53;7.20;99.90
52381;DHT22;38310;52.796;6.942;2023-12-20T09:17:19;7.30;99.90
52381;DHT22;38310;52.796;6.942;2023-12-20T09:19:45;7.50;99.90
52381;DHT22;38310;52.796;6.942;2023-12-20T09:22:11;7.80;99.90
52381;DHT22;38310;52.796;6.942;2023-12-20T09:24:37;7.30;99.90
52381;DHT22;38310;52.796;6.942;2023-12-20T09:27:04;7.70;99.90
52381;DHT22;38310;52.796;6.942;2023-12-20T09:29:31;7.40;99.90
52381;DHT22;38310;52.796;6.942;2023-12-20T09:31:57;7.60;99.90
52381;DHT22;38310;52.796;6.942;2023-12-20T09:34:23;7.50;99.90
52381;DHT22;38310;52.796;6.942;2023-12-20T09:36:49;7.50;99.90
52381;DHT22;38310;52.796;6.942;2023-12-20T09:39:16;7.50;99.90
52381;DHT22;38310;52.796;6.942;2023-12-20T09:42:11;7.60;99.90
52381;DHT22;38310;52.796;6.942;2023-12-20T09:44:35;7.60;99.90
52381;DHT22;38310;52.796;6.942;2023-12-20T09:47:05;7.60;99.90
52381;DHT22;38310;52.796;6.942;2023-12-20T09:49:33;7.60;99.90
52381;DHT22;38310;52.796;6.942;2023-12-20T09:52:00;7.80;99.90
52381;DHT22;38310;52.796;6.942;2023-12-20T09:54:28;7.70;99.90
52381;DHT22;38310;52.796;6.942;2023-12-20T09:56:54;7.70;99.90
52381;DHT22;38310;52.796;6.942;2023-12-20T09:59:19;7.80;99.90
52381;DHT22;38310;52.796;6.942;2023-12-20T10:01:45;7.90;99.90
52381;DHT22;38310;52.796;6.942;2023-12-20T10:04:12;8.10;99.90
52381;DHT22;38310;52.796;6.942;2023-12-20T10:06:42;7.90;99.90
52381;DHT22;38310;52.796;6.942;2023-12-20T10:09:09;7.80;99.90
52381;DHT22;38310;52.796;6.942;2023-12-20T10:11:36;7.60;99.90
52381;DHT22;38310;52.796;6.942;2023-12-20T10:14:06;7.40;99.90
52381;DHT22;38310;52.796;6.942;2023-12-20T10:16:32;8.20;99.90
52381;DHT22;38310;52.796;6.942;2023-12-20T10:18:59;6.90;99.90
52381;DHT22;38310;52.796;6.942;2023-12-20T10:21:26;6.60;99.90
52381;DHT22;38310;52.796;6.942;2023-12-20T10:23:54;7.60;99.90
52381;DHT22;38310;52.796;6.942;2023-12-20T10:26:26;5.50;99.90
52381;DHT22;38310;52.796;6.942;2023-12-20T10:28:59;6.50;99.90
52381;DHT22;38310;52.796;6.942;2023-12-20T10:31:35;6.40;99.90
52381;DHT22;38310;52.796;6.942;2023-12-20T10:34:04;6.30;99.90
52381;DHT22;38310;52.796;6.942;2023-12-20T10:36:33;6.60;99.90
52381;DHT22;38310;52.796;6.942;2023-12-20T10:38:59;6.20;99.90
52381;DHT22;38310;52.796;6.942;2023-12-20T10:41:26;6.30;99.90
52381;DHT22;38310;52.796;6.942;2023-12-20T10:44:03;6.20;99.90
52381;DHT22;38310;52.796;6.942;2023-12-20T10:46:34;6.10;99.90
52381;DHT22;38310;52.796;6.942;2023-12-20T10:49:02;6.10;99.90
52381;DHT22;38310;52.796;6.942;2023-12-20T10:51:30;6.10;99.90
52381;DHT22;38310;52.796;6.942;2023-12-20T10:53:57;6.00;99.90
52381;DHT22;38310;52.796;6.942;2023-12-20T10:56:32;6.10;99.90
52381;DHT22;38310;52.796;6.942;2023-12-20T10:59:02;6.10;99.90
52381;DHT22;38310;52.796;6.942;2023-12-20T11:01:31;6.10;99.90
52381;DHT22;38310;52.796;6.942;2023-12-20T11:03:57;6.30;99.90
52381;DHT22;38310;52.796;6.942;2023-12-20T11:09:20;6.30;99.90
52381;DHT22;38310;52.796;6.942;2023-12-20T11:12:01;6.20;99.90
52381;DHT22;38310;52.796;6.942;2023-12-20T11:14:51;6.30;99.90
52381;DHT22;38310;52.796;6.942;2023-12-20T11:17:18;6.20;99.90
52381;DHT22;38310;52.796;6.942;2023-12-20T11:20:07;6.30;99.90
52381;DHT22;38310;52.796;6.942;2023-12-20T11:22:36;6.30;99.90
52381;DHT22;38310;52.796;6.942;2023-12-20T11:25:07;6.40;99.90
52381;DHT22;38310;52.796;6.942;2023-12-20T11:27:34;6.40;99.90
52381;DHT22;38310;52.796;6.942;2023-12-20T11:30:03;6.40;99.90
52381;DHT22;38310;52.796;6.942;2023-12-20T11:32:33;7.00;99.90
52381;DHT22;38310;52.796;6.942;2023-12-20T11:35:16;6.40;99.90
52381;DHT22;38310;52.796;6.942;2023-12-20T11:37:42;6.40;99.90
52381;DHT22;38310;52.796;6.942;2023-12-20T11:40:11;6.40;99.90
52381;DHT22;38310;52.796;6.942;2023-12-20T11:42:39;6.50;99.90
52381;DHT22;38310;52.796;6.942;2023-12-20T11:45:09;6.60;99.90
52381;DHT22;38310;52.796;6.942;2023-12-20T11:47:36;6.60;99.90
52381;DHT22;38310;52.796;6.942;2023-12-20T11:50:02;6.70;99.90
52381;DHT22;38310;52.796;6.942;2023-12-20T11:52:29;6.80;99.90
52381;DHT22;38310;52.796;6.942;2023-12-20T11:54:57;6.90;99.90
52381;DHT22;38310;52.796;6.942;2023-12-20T11:57:23;6.90;99.90
52381;DHT22;38310;52.796;6.942;2023-12-20T11:59:49;7.30;99.90
52381;DHT22;38310;52.796;6.942;2023-12-20T12:02:15;7.00;99.90
52381;DHT22;38310;52.796;6.942;2023-12-20T12:04:41;6.90;99.90
52381;DHT22;38310;52.796;6.942;2023-12-20T12:07:07;7.00;99.90
52381;DHT22;38310;52.796;6.942;2023-12-20T12:09:34;7.30;99.90
52381;DHT22;38310;52.796;6.942;2023-12-20T12:12:00;6.90;99.90
52381;DHT22;38310;52.796;6.942;2023-12-20T12:14:26;6.90;99.90
52381;DHT22;38310;52.796;6.942;2023-12-20T12:16:52;6.90;99.90
52381;DHT22;38310;52.796;6.942;2023-12-20T12:19:22;6.90;99.90
52381;DHT22;38310;52.796;6.942;2023-12-20T12:21:50;7.00;99.90
52381;DHT22;38310;52.796;6.942;2023-12-20T12:24:20;7.50;99.90
52381;DHT22;38310;52.796;6.942;2023-12-20T12:26:57;7.00;99.90
52381;DHT22;38310;52.796;6.942;2023-12-20T12:29:23;7.10;99.90
52381;DHT22;38310;52.796;6.942;2023-12-20T12:31:52;7.00;99.90
52381;DHT22;38310;52.796;6.942;2023-12-20T12:34:18;7.00;99.90
52381;DHT22;38310;52.796;6.942;2023-12-20T12:36:44;7.10;99.90
52381;DHT22;38310;52.796;6.942;2023-12-20T12:39:18;7.10;99.90
52381;DHT22;38310;52.796;6.942;2023-12-20T12:41:44;7.00;99.90
52381;DHT22;38310;52.796;6.942;2023-12-20T12:44:09;7.10;99.90
52381;DHT22;38310;52.796;6.942;2023-12-20T12:46:35;7.00;99.90
52381;DHT22;38310;52.796;6.942;2023-12-20T12:49:01;7.10;99.90
52381;DHT22;38310;52.796;6.942;2023-12-20T12:51:27;7.00;99.90
52381;DHT22;38310;52.796;6.942;2023-12-20T12:53:53;7.00;99.90
52381;DHT22;38310;52.796;6.942;2023-12-20T12:56:19;7.00;99.90
52381;DHT22;38310;52.796;6.942;2023-12-20T12:58:45;7.00;99.90
52381;DHT22;38310;52.796;6.942;2023-12-20T13:01:11;7.00;99.90
52381;DHT22;38310;52.796;6.942;2023-12-20T13:03:37;6.90;99.90
52381;DHT22;38310;52.796;6.942;2023-12-20T13:06:03;6.90;99.90
52381;DHT22;38310;52.796;6.942;2023-12-20T13:08:31;6.90;99.90
52381;DHT22;38310;52.796;6.942;2023-12-20T13:10:57;6.90;99.90
52381;DHT22;38310;52.796;6.942;2023-12-20T13:13:27;6.90;99.90
52381;DHT22;38310;52.796;6.942;2023-12-20T13:15:52;6.60;99.90
52381;DHT22;38310;52.796;6.942;2023-12-20T13:18:21;7.40;99.90
52381;DHT22;38310;52.796;6.942;2023-12-20T13:20:48;6.80;99.90
52381;DHT22;38310;52.796;6.942;2023-12-20T13:23:13;6.80;99.90
52381;DHT22;38310;52.796;6.942;2023-12-20T13:25:40;6.80;99.90
52381;DHT22;38310;52.796;6.942;2023-12-20T13:28:06;6.80;99.90
52381;DHT22;38310;52.796;6.942;2023-12-20T13:30:32;6.70;99.90
52381;DHT22;38310;52.796;6.942;2023-12-20T13:32:58;6.70;99.90
52381;DHT22;38310;52.796;6.942;2023-12-20T13:35:23;7.40;99.90
52381;DHT22;38310;52.796;6.942;2023-12-20T13:37:49;6.90;99.90
52381;DHT22;38310;52.796;6.942;2023-12-20T13:40:15;6.50;99.90
52381;DHT22;38310;52.796;6.942;2023-12-20T13:42:41;6.40;99.90
52381;DHT22;38310;52.796;6.942;2023-12-20T13:45:07;6.40;99.90
52381;DHT22;38310;52.796;6.942;2023-12-20T13:47:33;6.30;99.90
52381;DHT22;38310;52.796;6.942;2023-12-20T13:50:00;6.60;99.90
52381;DHT22;38310;52.796;6.942;2023-12-20T13:52:26;6.20;99.90
52381;DHT22;38310;52.796;6.942;2023-12-20T13:54:51;6.20;99.90
52381;DHT22;38310;52.796;6.942;2023-12-20T13:57:17;6.20;99.90
52381;DHT22;38310;52.796;6.942;2023-12-20T13:59:43;6.20;99.90
52381;DHT22;38310;52.796;6.942;2023-12-20T14:02:09;6.30;99.90
52381;DHT22;38310;52.796;6.942;2023-12-20T14:04:35;6.10;99.90
52381;DHT22;38310;52.796;6.942;2023-12-20T14:07:01;6.00;99.90
52381;DHT22;38310;52.796;6.942;2023-12-20T14:09:27;6.10;99.90
52381;DHT22;38310;52.796;6.942;2023-12-20T14:11:52;6.10;99.90
52381;DHT22;38310;52.796;6.942;2023-12-20T14:14:20;6.00;99.90
52381;DHT22;38310;52.796;6.942;2023-12-20T14:16:46;6.10;99.90
52381;DHT22;38310;52.796;6.942;2023-12-20T14:19:12;5.20;99.90
52381;DHT22;38310;52.796;6.942;2023-12-20T14:21:38;6.00;99.90
52381;DHT22;38310;52.796;6.942;2023-12-20T14:24:04;6.00;99.90
52381;DHT22;38310;52.796;6.942;2023-12-20T14:26:30;6.00;99.90
52381;DHT22;38310;52.796;6.942;2023-12-20T14:28:56;6.50;99.90
52381;DHT22;38310;52.796;6.942;2023-12-20T14:31:22;5.90;99.90
52381;DHT22;38310;52.796;6.942;2023-12-20T14:33:50;6.00;99.90
52381;DHT22;38310;52.796;6.942;2023-12-20T14:36:19;5.90;99.90
52381;DHT22;38310;52.796;6.942;2023-12-20T14:38:46;5.80;99.90
52381;DHT22;38310;52.796;6.942;2023-12-20T14:41:15;5.80;99.90
52381;DHT22;38310;52.796;6.942;2023-12-20T14:43:42;5.80;99.90
52381;DHT22;38310;52.796;6.942;2023-12-20T14:46:08;6.10;99.90
52381;DHT22;38310;52.796;6.942;2023-12-20T14:48:34;5.70;99.90
52381;DHT22;38310;52.796;6.942;2023-12-20T14:50:59;5.80;99.90
52381;DHT22;38310;52.796;6.942;2023-12-20T14:53:26;5.80;99.90
52381;DHT22;38310;52.796;6.942;2023-12-20T14:55:52;5.80;99.90
52381;DHT22;38310;52.796;6.942;2023-12-20T14:58:18;5.80;99.90
52381;DHT22;38310;52.796;6.942;2023-12-20T15:00:43;5.80;99.90
52381;DHT22;38310;52.796;6.942;2023-12-20T15:03:10;5.80;99.90
52381;DHT22;38310;52.796;6.942;2023-12-20T15:05:36;5.80;99.90
52381;DHT22;38310;52.796;6.942;2023-12-20T15:08:03;5.80;99.90
52381;DHT22;38310;52.796;6.942;2023-12-20T15:10:29;5.70;99.90
52381;DHT22;38310;52.796;6.942;2023-12-20T15:12:56;6.00;99.90
52381;DHT22;38310;52.796;6.942;2023-12-20T15:15:22;5.80;99.90
52381;DHT22;38310;52.796;6.942;2023-12-20T15:17:48;5.90;99.90
52381;DHT22;38310;52.796;6.942;2023-12-20T15:20:13;5.80;99.90
52381;DHT22;38310;52.796;6.942;2023-12-20T15:22:39;5.80;99.90
52381;DHT22;38310;52.796;6.942;2023-12-20T15:25:07;5.70;99.90
52381;DHT22;38310;52.796;6.942;2023-12-20T15:27:35;5.70;99.90
52381;DHT22;38310;52.796;6.942;2023-12-20T15:30:05;6.10;99.90
52381;DHT22;38310;52.796;6.942;2023-12-20T15:32:32;5.80;99.90
52381;DHT22;38310;52.796;6.942;2023-12-20T15:34:59;5.80;99.90
52381;DHT22;38310;52.796;6.942;2023-12-20T15:37:25;5.90;99.90
52381;DHT22;38310;52.796;6.942;2023-12-20T15:39:52;5.90;99.90
52381;DHT22;38310;52.796;6.942;2023-12-20T15:42:18;5.80;99.90
52381;DHT22;38310;52.796;6.942;2023-12-20T15:44:44;5.80;99.90